sensor_id;sensor_type;location;lat;lon;timestamp;P1;durP1;ratioP1;P2;durP2;ratioP2
72301;SDS011;60235;52.234;5.186;2023-03-01T00:01:48;15.90;;;6.70;;
72301;SDS011;60235;52.234;5.186;2023-03-01T00:04:14;15.93;;;6.78;;
72301;SDS011;60235;52.234;5.186;2023-03-01T00:06:42;16.02;;;6.75;;
72301;SDS011;60235;52.234;5.186;2023-03-01T00:09:11;15.27;;;6.43;;
72301;SDS011;60235;52.234;5.186;2023-03-01T00:11:37;14.85;;;6.40;;
72301;SDS011;60235;52.234;5.186;2023-03-01T00:14:03;12.68;;;6.68;;
72301;SDS011;60235;52.234;5.186;2023-03-01T00:16:36;13.57;;;6.55;;
72301;SDS011;60235;52.234;5.186;2023-03-01T00:19:04;14.43;;;6.90;;
72301;SDS011;60235;52.234;5.186;2023-03-01T00:21:30;14.23;;;6.13;;
72301;SDS011;60235;52.234;5.186;2023-03-01T00:23:56;16.13;;;6.63;;
72301;SDS011;60235;52.234;5.186;2023-03-01T00:26:23;13.70;;;5.65;;
72301;SDS011;60235;52.234;5.186;2023-03-01T00:28:50;15.07;;;6.70;;
72301;SDS011;60235;52.234;5.186;2023-03-01T00:31:17;15.23;;;6.18;;
72301;SDS011;60235;52.234;5.186;2023-03-01T00:33:44;19.55;;;7.28;;
72301;SDS011;60235;52.234;5.186;2023-03-01T00:36:11;17.40;;;7.38;;
72301;SDS011;60235;52.234;5.186;2023-03-01T00:38:37;15.05;;;7.05;;
72301;SDS011;60235;52.234;5.186;2023-03-01T00:41:08;15.30;;;6.75;;
72301;SDS011;60235;52.234;5.186;2023-03-01T00:43:35;16.38;;;7.05;;
72301;SDS011;60235;52.234;5.186;2023-03-01T00:46:04;14.60;;;6.47;;
72301;SDS011;60235;52.234;5.186;2023-03-01T00:48:31;16.05;;;7.07;;
72301;SDS011;60235;52.234;5.186;2023-03-01T00:50:57;14.65;;;6.85;;
72301;SDS011;60235;52.234;5.186;2023-03-01T00:53:23;13.40;;;6.53;;
72301;SDS011;60235;52.234;5.186;2023-03-01T00:55:49;15.45;;;6.82;;
72301;SDS011;60235;52.234;5.186;2023-03-01T00:58:15;15.93;;;7.15;;
72301;SDS011;60235;52.234;5.186;2023-03-01T01:00:41;14.02;;;6.88;;
72301;SDS011;60235;52.234;5.186;2023-03-01T01:03:07;16.63;;;6.82;;
72301;SDS011;60235;52.234;5.186;2023-03-01T01:05:34;19.15;;;7.03;;
72301;SDS011;60235;52.234;5.186;2023-03-01T01:08:00;16.27;;;7.22;;
72301;SDS011;60235;52.234;5.186;2023-03-01T01:10:26;15.80;;;7.25;;
72301;SDS011;60235;52.234;5.186;2023-03-01T01:12:52;18.20;;;7.30;;
72301;SDS011;60235;52.234;5.186;2023-03-01T01:15:18;13.73;;;6.43;;
72301;SDS011;60235;52.234;5.186;2023-03-01T01:17:44;18.20;;;6.65;;
72301;SDS011;60235;52.234;5.186;2023-03-01T01:20:10;22.05;;;7.65;;
72301;SDS011;60235;52.234;5.186;2023-03-01T01:22:36;16.02;;;7.13;;
72301;SDS011;60235;52.234;5.186;2023-03-01T01:25:02;18.00;;;7.13;;
72301;SDS011;60235;52.234;5.186;2023-03-01T01:27:29;16.25;;;6.95;;
72301;SDS011;60235;52.234;5.186;2023-03-01T01:29:55;17.70;;;8.20;;
72301;SDS011;60235;52.234;5.186;2023-03-01T01:32:22;16.33;;;6.95;;
72301;SDS011;60235;52.234;5.186;2023-03-01T01:34:48;16.30;;;6.97;;
72301;SDS011;60235;52.234;5.186;2023-03-01T01:37:14;15.57;;;6.45;;
72301;SDS011;60235;52.234;5.186;2023-03-01T01:39:40;17.75;;;7.15;;
72301;SDS011;60235;52.234;5.186;2023-03-01T01:42:08;14.52;;;7.03;;
72301;SDS011;60235;52.234;5.186;2023-03-01T01:44:35;16.67;;;6.70;;
72301;SDS011;60235;52.234;5.186;2023-03-01T01:47:02;18.20;;;7.55;;
72301;SDS011;60235;52.234;5.186;2023-03-01T01:52:20;15.05;;;7.30;;
72301;SDS011;60235;52.234;5.186;2023-03-01T01:54:50;17.50;;;7.20;;
72301;SDS011;60235;52.234;5.186;2023-03-01T01:57:36;18.98;;;7.15;;
72301;SDS011;60235;52.234;5.186;2023-03-01T02:00:12;14.07;;;7.07;;
72301;SDS011;60235;52.234;5.186;2023-03-01T02:02:39;18.00;;;8.23;;
72301;SDS011;60235;52.234;5.186;2023-03-01T02:05:12;19.38;;;7.30;;
72301;SDS011;60235;52.234;5.186;2023-03-01T02:07:40;20.10;;;7.05;;
72301;SDS011;60235;52.234;5.186;2023-03-01T02:10:07;18.02;;;7.20;;
72301;SDS011;60235;52.234;5.186;2023-03-01T02:12:33;17.85;;;7.63;;
72301;SDS011;60235;52.234;5.186;2023-03-01T02:14:59;17.52;;;7.35;;
72301;SDS011;60235;52.234;5.186;2023-03-01T02:17:25;16.42;;;7.03;;
72301;SDS011;60235;52.234;5.186;2023-03-01T02:20:07;17.65;;;7.40;;
72301;SDS011;60235;52.234;5.186;2023-03-01T02:22:38;16.02;;;6.53;;
72301;SDS011;60235;52.234;5.186;2023-03-01T02:25:12;17.75;;;7.32;;
72301;SDS011;60235;52.234;5.186;2023-03-01T02:30:19;16.58;;;7.43;;
72301;SDS011;60235;52.234;5.186;2023-03-01T02:32:46;16.95;;;7.25;;
72301;SDS011;60235;52.234;5.186;2023-03-01T02:35:13;16.67;;;7.65;;
72301;SDS011;60235;52.234;5.186;2023-03-01T02:37:40;17.15;;;7.57;;
72301;SDS011;60235;52.234;5.186;2023-03-01T02:40:08;17.45;;;7.43;;
72301;SDS011;60235;52.234;5.186;2023-03-01T02:42:40;19.15;;;7.07;;
72301;SDS011;60235;52.234;5.186;2023-03-01T02:45:09;15.60;;;7.30;;
72301;SDS011;60235;52.234;5.186;2023-03-01T02:47:35;19.27;;;7.45;;
72301;SDS011;60235;52.234;5.186;2023-03-01T02:50:01;20.40;;;7.75;;
72301;SDS011;60235;52.234;5.186;2023-03-01T02:52:33;19.45;;;7.38;;
72301;SDS011;60235;52.234;5.186;2023-03-01T02:55:04;17.00;;;7.57;;
72301;SDS011;60235;52.234;5.186;2023-03-01T02:57:33;16.77;;;6.65;;
72301;SDS011;60235;52.234;5.186;2023-03-01T03:00:02;16.63;;;8.13;;
72301;SDS011;60235;52.234;5.186;2023-03-01T03:02:32;17.92;;;7.40;;
72301;SDS011;60235;52.234;5.186;2023-03-01T03:05:14;17.25;;;7.85;;
72301;SDS011;60235;52.234;5.186;2023-03-01T03:07:41;16.10;;;6.63;;
72301;SDS011;60235;52.234;5.186;2023-03-01T03:10:10;15.45;;;7.82;;
72301;SDS011;60235;52.234;5.186;2023-03-01T03:12:36;17.05;;;7.72;;
72301;SDS011;60235;52.234;5.186;2023-03-01T03:15:03;14.27;;;6.65;;
72301;SDS011;60235;52.234;5.186;2023-03-01T03:17:33;17.70;;;7.20;;
72301;SDS011;60235;52.234;5.186;2023-03-01T03:19:59;19.25;;;7.40;;
72301;SDS011;60235;52.234;5.186;2023-03-01T03:22:25;16.05;;;7.40;;
72301;SDS011;60235;52.234;5.186;2023-03-01T03:24:53;17.90;;;7.57;;
72301;SDS011;60235;52.234;5.186;2023-03-01T03:27:19;19.65;;;7.10;;
72301;SDS011;60235;52.234;5.186;2023-03-01T03:29:45;17.83;;;7.13;;
72301;SDS011;60235;52.234;5.186;2023-03-01T03:32:11;18.33;;;7.15;;
72301;SDS011;60235;52.234;5.186;2023-03-01T03:34:37;16.35;;;7.25;;
72301;SDS011;60235;52.234;5.186;2023-03-01T03:37:03;15.20;;;6.55;;
72301;SDS011;60235;52.234;5.186;2023-03-01T03:39:49;16.20;;;7.05;;
72301;SDS011;60235;52.234;5.186;2023-03-01T03:42:19;17.35;;;7.22;;
72301;SDS011;60235;52.234;5.186;2023-03-01T03:44:45;14.88;;;7.18;;
72301;SDS011;60235;52.234;5.186;2023-03-01T03:47:11;14.27;;;6.90;;
72301;SDS011;60235;52.234;5.186;2023-03-01T03:49:37;15.77;;;6.47;;
72301;SDS011;60235;52.234;5.186;2023-03-01T03:52:03;16.13;;;7.20;;
72301;SDS011;60235;52.234;5.186;2023-03-01T03:54:29;14.07;;;6.45;;
72301;SDS011;60235;52.234;5.186;2023-03-01T03:56:55;17.65;;;7.80;;
72301;SDS011;60235;52.234;5.186;2023-03-01T03:59:21;16.73;;;7.47;;
72301;SDS011;60235;52.234;5.186;2023-03-01T04:01:47;16.55;;;6.68;;
72301;SDS011;60235;52.234;5.186;2023-03-01T04:04:13;16.48;;;6.85;;
72301;SDS011;60235;52.234;5.186;2023-03-01T04:06:42;15.70;;;6.57;;
72301;SDS011;60235;52.234;5.186;2023-03-01T04:09:08;15.75;;;6.95;;
72301;SDS011;60235;52.234;5.186;2023-03-01T04:11:34;15.55;;;6.85;;
72301;SDS011;60235;52.234;5.186;2023-03-01T04:14:00;17.23;;;6.88;;
72301;SDS011;60235;52.234;5.186;2023-03-01T04:16:29;16.45;;;6.80;;
72301;SDS011;60235;52.234;5.186;2023-03-01T04:18:55;16.30;;;7.07;;
72301;SDS011;60235;52.234;5.186;2023-03-01T04:21:21;17.90;;;6.47;;
72301;SDS011;60235;52.234;5.186;2023-03-01T04:23:47;14.95;;;5.93;;
72301;SDS011;60235;52.234;5.186;2023-03-01T04:26:17;17.48;;;7.15;;
72301;SDS011;60235;52.234;5.186;2023-03-01T04:28:43;12.95;;;5.95;;
72301;SDS011;60235;52.234;5.186;2023-03-01T04:31:11;14.27;;;6.82;;
72301;SDS011;60235;52.234;5.186;2023-03-01T04:33:49;15.82;;;6.85;;
72301;SDS011;60235;52.234;5.186;2023-03-01T04:36:16;14.88;;;6.60;;
72301;SDS011;60235;52.234;5.186;2023-03-01T04:38:43;16.65;;;6.88;;
72301;SDS011;60235;52.234;5.186;2023-03-01T04:43:38;12.65;;;5.65;;
72301;SDS011;60235;52.234;5.186;2023-03-01T04:46:05;14.48;;;5.57;;
72301;SDS011;60235;52.234;5.186;2023-03-01T04:48:33;18.45;;;6.60;;
72301;SDS011;60235;52.234;5.186;2023-03-01T04:50:59;13.52;;;5.70;;
72301;SDS011;60235;52.234;5.186;2023-03-01T04:53:25;15.32;;;6.32;;
72301;SDS011;60235;52.234;5.186;2023-03-01T04:55:52;18.58;;;7.00;;
72301;SDS011;60235;52.234;5.186;2023-03-01T04:58:19;14.25;;;6.03;;
72301;SDS011;60235;52.234;5.186;2023-03-01T05:00:45;15.70;;;6.15;;
72301;SDS011;60235;52.234;5.186;2023-03-01T05:03:11;15.38;;;5.93;;
72301;SDS011;60235;52.234;5.186;2023-03-01T05:05:37;15.70;;;6.50;;
72301;SDS011;60235;52.234;5.186;2023-03-01T05:08:05;14.57;;;6.78;;
72301;SDS011;60235;52.234;5.186;2023-03-01T05:10:32;18.42;;;5.88;;
72301;SDS011;60235;52.234;5.186;2023-03-01T05:13:00;15.00;;;6.13;;
72301;SDS011;60235;52.234;5.186;2023-03-01T05:15:26;13.55;;;5.95;;
72301;SDS011;60235;52.234;5.186;2023-03-01T05:17:53;16.67;;;7.38;;
72301;SDS011;60235;52.234;5.186;2023-03-01T05:20:20;17.95;;;6.82;;
72301;SDS011;60235;52.234;5.186;2023-03-01T05:22:50;15.77;;;6.57;;
72301;SDS011;60235;52.234;5.186;2023-03-01T05:25:16;14.93;;;6.70;;
72301;SDS011;60235;52.234;5.186;2023-03-01T05:27:42;18.25;;;6.80;;
72301;SDS011;60235;52.234;5.186;2023-03-01T05:30:08;17.23;;;7.00;;
72301;SDS011;60235;52.234;5.186;2023-03-01T05:32:49;14.65;;;6.32;;
72301;SDS011;60235;52.234;5.186;2023-03-01T05:35:20;17.55;;;6.50;;
72301;SDS011;60235;52.234;5.186;2023-03-01T05:37:47;13.18;;;5.78;;
72301;SDS011;60235;52.234;5.186;2023-03-01T05:40:15;18.58;;;7.10;;
72301;SDS011;60235;52.234;5.186;2023-03-01T05:42:46;16.38;;;6.22;;
72301;SDS011;60235;52.234;5.186;2023-03-01T05:45:13;19.08;;;7.10;;
72301;SDS011;60235;52.234;5.186;2023-03-01T05:47:40;15.35;;;6.75;;
72301;SDS011;60235;52.234;5.186;2023-03-01T05:50:16;17.23;;;7.07;;
72301;SDS011;60235;52.234;5.186;2023-03-01T05:52:46;15.30;;;6.40;;
72301;SDS011;60235;52.234;5.186;2023-03-01T05:55:13;14.90;;;6.22;;
72301;SDS011;60235;52.234;5.186;2023-03-01T05:57:39;18.85;;;6.75;;
72301;SDS011;60235;52.234;5.186;2023-03-01T06:00:05;15.60;;;6.00;;
72301;SDS011;60235;52.234;5.186;2023-03-01T06:02:32;17.70;;;7.03;;
72301;SDS011;60235;52.234;5.186;2023-03-01T06:04:58;17.40;;;7.13;;
72301;SDS011;60235;52.234;5.186;2023-03-01T06:07:24;16.38;;;7.28;;
72301;SDS011;60235;52.234;5.186;2023-03-01T06:09:50;16.52;;;7.13;;
72301;SDS011;60235;52.234;5.186;2023-03-01T06:12:16;17.85;;;7.93;;
72301;SDS011;60235;52.234;5.186;2023-03-01T06:14:42;16.80;;;7.22;;
72301;SDS011;60235;52.234;5.186;2023-03-01T06:17:08;17.65;;;7.00;;
72301;SDS011;60235;52.234;5.186;2023-03-01T06:19:34;19.17;;;7.45;;
72301;SDS011;60235;52.234;5.186;2023-03-01T06:22:00;14.63;;;6.65;;
72301;SDS011;60235;52.234;5.186;2023-03-01T06:24:26;18.05;;;7.55;;
72301;SDS011;60235;52.234;5.186;2023-03-01T06:26:53;20.92;;;7.55;;
72301;SDS011;60235;52.234;5.186;2023-03-01T06:29:20;20.33;;;7.75;;
72301;SDS011;60235;52.234;5.186;2023-03-01T06:31:47;17.60;;;7.28;;
72301;SDS011;60235;52.234;5.186;2023-03-01T06:34:13;19.08;;;6.95;;
72301;SDS011;60235;52.234;5.186;2023-03-01T06:36:39;17.20;;;7.03;;
72301;SDS011;60235;52.234;5.186;2023-03-01T06:39:06;18.92;;;7.43;;
72301;SDS011;60235;52.234;5.186;2023-03-01T06:41:32;17.40;;;7.55;;
72301;SDS011;60235;52.234;5.186;2023-03-01T06:43:58;16.98;;;7.40;;
72301;SDS011;60235;52.234;5.186;2023-03-01T06:46:25;17.83;;;7.45;;
72301;SDS011;60235;52.234;5.186;2023-03-01T06:48:51;17.88;;;7.95;;
72301;SDS011;60235;52.234;5.186;2023-03-01T06:51:17;21.95;;;8.52;;
72301;SDS011;60235;52.234;5.186;2023-03-01T06:53:45;21.60;;;8.13;;
72301;SDS011;60235;52.234;5.186;2023-03-01T06:56:11;17.25;;;7.22;;
72301;SDS011;60235;52.234;5.186;2023-03-01T06:58:37;19.27;;;7.57;;
72301;SDS011;60235;52.234;5.186;2023-03-01T07:01:07;20.05;;;8.30;;
72301;SDS011;60235;52.234;5.186;2023-03-01T07:03:33;19.48;;;7.80;;
72301;SDS011;60235;52.234;5.186;2023-03-01T07:05:59;23.60;;;8.15;;
72301;SDS011;60235;52.234;5.186;2023-03-01T07:08:25;20.48;;;8.45;;
72301;SDS011;60235;52.234;5.186;2023-03-01T07:10:55;23.10;;;8.52;;
72301;SDS011;60235;52.234;5.186;2023-03-01T07:13:21;22.05;;;9.25;;
72301;SDS011;60235;52.234;5.186;2023-03-01T07:15:47;22.90;;;8.05;;
72301;SDS011;60235;52.234;5.186;2023-03-01T07:18:13;18.92;;;9.30;;
72301;SDS011;60235;52.234;5.186;2023-03-01T07:20:39;20.15;;;8.65;;
72301;SDS011;60235;52.234;5.186;2023-03-01T07:23:05;24.10;;;9.88;;
72301;SDS011;60235;52.234;5.186;2023-03-01T07:25:31;22.52;;;10.40;;
72301;SDS011;60235;52.234;5.186;2023-03-01T07:27:57;23.35;;;10.07;;
72301;SDS011;60235;52.234;5.186;2023-03-01T07:30:23;23.85;;;10.00;;
72301;SDS011;60235;52.234;5.186;2023-03-01T07:32:52;26.33;;;9.88;;
72301;SDS011;60235;52.234;5.186;2023-03-01T07:35:18;23.38;;;10.05;;
72301;SDS011;60235;52.234;5.186;2023-03-01T07:37:44;22.42;;;9.82;;
72301;SDS011;60235;52.234;5.186;2023-03-01T07:40:10;22.95;;;10.98;;
72301;SDS011;60235;52.234;5.186;2023-03-01T07:42:37;22.95;;;11.25;;
72301;SDS011;60235;52.234;5.186;2023-03-01T07:45:03;23.38;;;10.15;;
72301;SDS011;60235;52.234;5.186;2023-03-01T07:47:29;23.73;;;10.52;;
72301;SDS011;60235;52.234;5.186;2023-03-01T07:49:55;25.15;;;10.23;;
72301;SDS011;60235;52.234;5.186;2023-03-01T07:52:21;29.00;;;12.90;;
72301;SDS011;60235;52.234;5.186;2023-03-01T07:54:47;33.78;;;13.07;;
72301;SDS011;60235;52.234;5.186;2023-03-01T07:57:13;29.13;;;12.85;;
72301;SDS011;60235;52.234;5.186;2023-03-01T07:59:39;28.52;;;11.25;;
72301;SDS011;60235;52.234;5.186;2023-03-01T08:02:05;25.77;;;11.18;;
72301;SDS011;60235;52.234;5.186;2023-03-01T08:04:32;26.55;;;10.70;;
72301;SDS011;60235;52.234;5.186;2023-03-01T08:06:58;29.27;;;11.32;;
72301;SDS011;60235;52.234;5.186;2023-03-01T08:09:24;22.90;;;9.70;;
72301;SDS011;60235;52.234;5.186;2023-03-01T08:11:50;24.35;;;9.98;;
72301;SDS011;60235;52.234;5.186;2023-03-01T08:14:16;24.40;;;9.75;;
72301;SDS011;60235;52.234;5.186;2023-03-01T08:16:42;23.70;;;10.43;;
72301;SDS011;60235;52.234;5.186;2023-03-01T08:19:09;24.92;;;10.05;;
72301;SDS011;60235;52.234;5.186;2023-03-01T08:21:35;25.05;;;11.02;;
72301;SDS011;60235;52.234;5.186;2023-03-01T08:24:02;23.45;;;9.88;;
72301;SDS011;60235;52.234;5.186;2023-03-01T08:26:28;21.25;;;9.15;;
72301;SDS011;60235;52.234;5.186;2023-03-01T08:28:54;24.33;;;9.70;;
72301;SDS011;60235;52.234;5.186;2023-03-01T08:31:22;18.63;;;9.05;;
72301;SDS011;60235;52.234;5.186;2023-03-01T08:33:49;22.85;;;10.23;;
72301;SDS011;60235;52.234;5.186;2023-03-01T08:36:20;19.67;;;9.57;;
72301;SDS011;60235;52.234;5.186;2023-03-01T08:38:46;21.90;;;9.45;;
72301;SDS011;60235;52.234;5.186;2023-03-01T08:41:12;19.33;;;8.77;;
72301;SDS011;60235;52.234;5.186;2023-03-01T08:43:39;18.65;;;9.02;;
72301;SDS011;60235;52.234;5.186;2023-03-01T08:46:05;18.00;;;8.90;;
72301;SDS011;60235;52.234;5.186;2023-03-01T08:48:31;17.50;;;8.48;;
72301;SDS011;60235;52.234;5.186;2023-03-01T08:50:57;15.30;;;7.55;;
72301;SDS011;60235;52.234;5.186;2023-03-01T08:53:23;13.82;;;6.57;;
72301;SDS011;60235;52.234;5.186;2023-03-01T08:55:49;14.68;;;6.78;;
72301;SDS011;60235;52.234;5.186;2023-03-01T08:58:15;17.58;;;7.28;;
72301;SDS011;60235;52.234;5.186;2023-03-01T09:00:41;17.65;;;7.20;;
72301;SDS011;60235;52.234;5.186;2023-03-01T09:03:07;15.20;;;6.80;;
72301;SDS011;60235;52.234;5.186;2023-03-01T09:05:34;17.10;;;6.22;;
72301;SDS011;60235;52.234;5.186;2023-03-01T09:08:01;13.32;;;5.97;;
72301;SDS011;60235;52.234;5.186;2023-03-01T09:10:27;13.88;;;5.68;;
72301;SDS011;60235;52.234;5.186;2023-03-01T09:12:53;13.60;;;5.97;;
72301;SDS011;60235;52.234;5.186;2023-03-01T09:15:19;12.73;;;5.78;;
72301;SDS011;60235;52.234;5.186;2023-03-01T09:17:45;15.95;;;6.68;;
72301;SDS011;60235;52.234;5.186;2023-03-01T09:20:11;13.80;;;5.65;;
72301;SDS011;60235;52.234;5.186;2023-03-01T09:22:38;18.25;;;7.25;;
72301;SDS011;60235;52.234;5.186;2023-03-01T09:25:04;17.02;;;7.15;;
72301;SDS011;60235;52.234;5.186;2023-03-01T09:27:30;15.13;;;6.75;;
72301;SDS011;60235;52.234;5.186;2023-03-01T09:29:56;13.55;;;5.97;;
72301;SDS011;60235;52.234;5.186;2023-03-01T09:32:22;11.60;;;5.28;;
72301;SDS011;60235;52.234;5.186;2023-03-01T09:34:48;15.45;;;5.30;;
72301;SDS011;60235;52.234;5.186;2023-03-01T09:37:28;13.23;;;5.57;;
72301;SDS011;60235;52.234;5.186;2023-03-01T09:39:54;13.20;;;5.70;;
72301;SDS011;60235;52.234;5.186;2023-03-01T09:42:20;14.30;;;5.45;;
72301;SDS011;60235;52.234;5.186;2023-03-01T09:47:23;11.82;;;5.47;;
72301;SDS011;60235;52.234;5.186;2023-03-01T09:50:38;12.43;;;5.30;;
72301;SDS011;60235;52.234;5.186;2023-03-01T10:05:36;12.88;;;5.10;;
72301;SDS011;60235;52.234;5.186;2023-03-01T10:10:32;11.63;;;4.57;;
72301;SDS011;60235;52.234;5.186;2023-03-01T10:13:00;10.82;;;5.18;;
72301;SDS011;60235;52.234;5.186;2023-03-01T10:15:32;9.52;;;4.30;;
72301;SDS011;60235;52.234;5.186;2023-03-01T10:18:01;10.30;;;4.20;;
72301;SDS011;60235;52.234;5.186;2023-03-01T10:20:42;9.45;;;4.85;;
72301;SDS011;60235;52.234;5.186;2023-03-01T10:23:09;9.90;;;4.97;;
72301;SDS011;60235;52.234;5.186;2023-03-01T10:30:37;8.95;;;3.03;;
72301;SDS011;60235;52.234;5.186;2023-03-01T10:33:08;9.77;;;4.07;;
72301;SDS011;60235;52.234;5.186;2023-03-01T10:35:36;10.13;;;4.20;;
72301;SDS011;60235;52.234;5.186;2023-03-01T10:40:28;12.85;;;3.97;;
72301;SDS011;60235;52.234;5.186;2023-03-01T10:42:54;10.88;;;4.28;;
72301;SDS011;60235;52.234;5.186;2023-03-01T10:50:30;10.55;;;4.30;;
72301;SDS011;60235;52.234;5.186;2023-03-01T10:52:58;7.80;;;3.38;;
72301;SDS011;60235;52.234;5.186;2023-03-01T11:00:25;10.48;;;4.13;;
72301;SDS011;60235;52.234;5.186;2023-03-01T11:05:24;9.77;;;3.58;;
72301;SDS011;60235;52.234;5.186;2023-03-01T11:10:17;9.07;;;3.63;;
72301;SDS011;60235;52.234;5.186;2023-03-01T11:12:44;7.85;;;3.65;;
72301;SDS011;60235;52.234;5.186;2023-03-01T11:15:19;8.07;;;3.75;;
72301;SDS011;60235;52.234;5.186;2023-03-01T11:17:46;10.00;;;3.60;;
72301;SDS011;60235;52.234;5.186;2023-03-01T11:22:39;9.60;;;4.10;;
72301;SDS011;60235;52.234;5.186;2023-03-01T11:25:08;9.68;;;3.97;;
72301;SDS011;60235;52.234;5.186;2023-03-01T11:27:38;9.98;;;3.72;;
72301;SDS011;60235;52.234;5.186;2023-03-01T11:30:07;9.25;;;3.53;;
72301;SDS011;60235;52.234;5.186;2023-03-01T11:32:40;12.23;;;3.90;;
72301;SDS011;60235;52.234;5.186;2023-03-01T11:35:21;9.00;;;3.33;;
72301;SDS011;60235;52.234;5.186;2023-03-01T11:42:58;11.38;;;3.53;;
72301;SDS011;60235;52.234;5.186;2023-03-01T11:45:25;9.85;;;3.80;;
72301;SDS011;60235;52.234;5.186;2023-03-01T11:50:55;10.20;;;3.35;;
72301;SDS011;60235;52.234;5.186;2023-03-01T11:58:27;9.40;;;3.53;;
72301;SDS011;60235;52.234;5.186;2023-03-01T12:01:01;8.30;;;3.45;;
72301;SDS011;60235;52.234;5.186;2023-03-01T12:19:06;9.05;;;3.90;;
72301;SDS011;60235;52.234;5.186;2023-03-01T12:24:15;9.07;;;3.65;;
72301;SDS011;60235;52.234;5.186;2023-03-01T12:26:59;9.23;;;4.07;;
72301;SDS011;60235;52.234;5.186;2023-03-01T12:29:38;9.93;;;3.70;;
72301;SDS011;60235;52.234;5.186;2023-03-01T12:32:15;8.98;;;3.28;;
72301;SDS011;60235;52.234;5.186;2023-03-01T12:47:37;10.05;;;3.70;;
72301;SDS011;60235;52.234;5.186;2023-03-01T12:50:11;9.75;;;3.28;;
72301;SDS011;60235;52.234;5.186;2023-03-01T12:52:42;8.30;;;3.05;;
72301;SDS011;60235;52.234;5.186;2023-03-01T12:55:25;8.85;;;3.40;;
72301;SDS011;60235;52.234;5.186;2023-03-01T12:58:12;9.40;;;3.63;;
72301;SDS011;60235;52.234;5.186;2023-03-01T13:06:19;9.23;;;3.20;;
72301;SDS011;60235;52.234;5.186;2023-03-01T13:11:20;7.28;;;3.05;;
72301;SDS011;60235;52.234;5.186;2023-03-01T13:13:46;9.85;;;3.30;;
72301;SDS011;60235;52.234;5.186;2023-03-01T13:21:51;8.60;;;2.83;;
72301;SDS011;60235;52.234;5.186;2023-03-01T13:31:58;8.50;;;2.75;;
72301;SDS011;60235;52.234;5.186;2023-03-01T13:34:41;8.60;;;3.28;;
72301;SDS011;60235;52.234;5.186;2023-03-01T13:37:18;7.38;;;2.92;;
72301;SDS011;60235;52.234;5.186;2023-03-01T13:39:44;11.10;;;3.00;;
72301;SDS011;60235;52.234;5.186;2023-03-01T13:44:54;7.68;;;3.08;;
72301;SDS011;60235;52.234;5.186;2023-03-01T13:47:20;9.40;;;2.95;;
72301;SDS011;60235;52.234;5.186;2023-03-01T13:52:43;7.13;;;3.08;;
72301;SDS011;60235;52.234;5.186;2023-03-01T13:55:34;6.28;;;2.80;;
72301;SDS011;60235;52.234;5.186;2023-03-01T13:57:57;9.27;;;3.33;;
72301;SDS011;60235;52.234;5.186;2023-03-01T14:00:28;9.27;;;3.20;;
72301;SDS011;60235;52.234;5.186;2023-03-01T14:05:27;8.05;;;3.55;;
72301;SDS011;60235;52.234;5.186;2023-03-01T14:07:54;9.35;;;3.25;;
72301;SDS011;60235;52.234;5.186;2023-03-01T14:10:21;7.80;;;3.30;;
72301;SDS011;60235;52.234;5.186;2023-03-01T14:17:50;9.80;;;3.08;;
72301;SDS011;60235;52.234;5.186;2023-03-01T14:20:19;7.57;;;3.00;;
72301;SDS011;60235;52.234;5.186;2023-03-01T14:22:46;8.98;;;2.95;;
72301;SDS011;60235;52.234;5.186;2023-03-01T14:25:17;7.15;;;2.80;;
72301;SDS011;60235;52.234;5.186;2023-03-01T14:27:44;8.23;;;3.30;;
72301;SDS011;60235;52.234;5.186;2023-03-01T14:30:21;9.00;;;3.08;;
72301;SDS011;60235;52.234;5.186;2023-03-01T14:35:24;10.20;;;3.15;;
72301;SDS011;60235;52.234;5.186;2023-03-01T14:37:50;8.32;;;3.13;;
72301;SDS011;60235;52.234;5.186;2023-03-01T14:40:21;8.45;;;3.15;;
72301;SDS011;60235;52.234;5.186;2023-03-01T14:42:48;8.07;;;3.00;;
72301;SDS011;60235;52.234;5.186;2023-03-01T14:45:14;8.68;;;3.10;;
72301;SDS011;60235;52.234;5.186;2023-03-01T14:47:41;10.32;;;3.15;;
72301;SDS011;60235;52.234;5.186;2023-03-01T14:52:40;7.82;;;3.03;;
72301;SDS011;60235;52.234;5.186;2023-03-01T14:55:18;12.25;;;4.10;;
72301;SDS011;60235;52.234;5.186;2023-03-01T14:57:46;8.50;;;3.42;;
72301;SDS011;60235;52.234;5.186;2023-03-01T15:00:18;10.02;;;3.38;;
72301;SDS011;60235;52.234;5.186;2023-03-01T15:02:44;9.30;;;3.63;;
72301;SDS011;60235;52.234;5.186;2023-03-01T15:05:14;7.30;;;3.53;;
72301;SDS011;60235;52.234;5.186;2023-03-01T15:07:41;8.20;;;3.28;;
72301;SDS011;60235;52.234;5.186;2023-03-01T15:13:22;7.63;;;3.10;;
72301;SDS011;60235;52.234;5.186;2023-03-01T15:15:48;8.95;;;3.50;;
72301;SDS011;60235;52.234;5.186;2023-03-01T15:18:20;9.57;;;3.50;;
72301;SDS011;60235;52.234;5.186;2023-03-01T15:20:47;9.38;;;3.80;;
72301;SDS011;60235;52.234;5.186;2023-03-01T15:23:18;8.90;;;3.28;;
72301;SDS011;60235;52.234;5.186;2023-03-01T15:25:45;8.88;;;3.70;;
72301;SDS011;60235;52.234;5.186;2023-03-01T15:28:12;9.00;;;3.35;;
72301;SDS011;60235;52.234;5.186;2023-03-01T15:30:42;9.13;;;3.65;;
72301;SDS011;60235;52.234;5.186;2023-03-01T15:35:48;7.70;;;3.72;;
72301;SDS011;60235;52.234;5.186;2023-03-01T15:40:52;9.65;;;3.35;;
72301;SDS011;60235;52.234;5.186;2023-03-01T15:46:03;11.00;;;3.95;;
72301;SDS011;60235;52.234;5.186;2023-03-01T15:48:29;9.38;;;3.53;;
72301;SDS011;60235;52.234;5.186;2023-03-01T15:50:56;9.43;;;3.92;;
72301;SDS011;60235;52.234;5.186;2023-03-01T15:53:23;9.15;;;3.67;;
72301;SDS011;60235;52.234;5.186;2023-03-01T15:55:49;9.40;;;3.60;;
72301;SDS011;60235;52.234;5.186;2023-03-01T15:58:17;9.93;;;4.45;;
72301;SDS011;60235;52.234;5.186;2023-03-01T16:00:45;11.68;;;4.10;;
72301;SDS011;60235;52.234;5.186;2023-03-01T16:03:13;10.52;;;4.25;;
72301;SDS011;60235;52.234;5.186;2023-03-01T16:05:46;10.82;;;4.57;;
72301;SDS011;60235;52.234;5.186;2023-03-01T16:08:12;10.32;;;3.90;;
72301;SDS011;60235;52.234;5.186;2023-03-01T16:10:38;9.10;;;3.60;;
72301;SDS011;60235;52.234;5.186;2023-03-01T16:13:05;8.95;;;3.17;;
72301;SDS011;60235;52.234;5.186;2023-03-01T16:15:32;10.70;;;3.97;;
72301;SDS011;60235;52.234;5.186;2023-03-01T16:18:03;10.35;;;4.13;;
72301;SDS011;60235;52.234;5.186;2023-03-01T16:20:30;9.95;;;4.10;;
72301;SDS011;60235;52.234;5.186;2023-03-01T16:23:04;9.93;;;3.90;;
72301;SDS011;60235;52.234;5.186;2023-03-01T16:25:31;9.25;;;4.50;;
72301;SDS011;60235;52.234;5.186;2023-03-01T16:27:58;9.82;;;3.83;;
72301;SDS011;60235;52.234;5.186;2023-03-01T16:30:26;13.98;;;4.88;;
72301;SDS011;60235;52.234;5.186;2023-03-01T16:32:52;24.42;;;5.35;;
72301;SDS011;60235;52.234;5.186;2023-03-01T16:35:19;13.10;;;4.05;;
72301;SDS011;60235;52.234;5.186;2023-03-01T16:37:45;9.93;;;4.00;;
72301;SDS011;60235;52.234;5.186;2023-03-01T16:40:16;10.35;;;4.03;;
72301;SDS011;60235;52.234;5.186;2023-03-01T16:42:42;11.20;;;4.07;;
72301;SDS011;60235;52.234;5.186;2023-03-01T16:45:09;12.05;;;4.05;;
72301;SDS011;60235;52.234;5.186;2023-03-01T16:47:35;10.98;;;4.30;;
72301;SDS011;60235;52.234;5.186;2023-03-01T16:50:01;12.00;;;4.15;;
72301;SDS011;60235;52.234;5.186;2023-03-01T16:52:27;10.18;;;4.30;;
72301;SDS011;60235;52.234;5.186;2023-03-01T16:54:53;10.65;;;4.35;;
72301;SDS011;60235;52.234;5.186;2023-03-01T16:57:19;11.63;;;4.38;;
72301;SDS011;60235;52.234;5.186;2023-03-01T16:59:45;12.40;;;4.40;;
72301;SDS011;60235;52.234;5.186;2023-03-01T17:02:12;10.15;;;4.35;;
72301;SDS011;60235;52.234;5.186;2023-03-01T17:04:39;11.02;;;4.47;;
72301;SDS011;60235;52.234;5.186;2023-03-01T17:07:06;9.20;;;3.63;;